createdAt,value
2018-12-20T00:00:46.407Z,3.28
2018-12-20T00:01:47.140Z,3.36
2018-12-20T00:02:47.140Z,3.29
2018-12-20T00:03:46.158Z,3.31
2018-12-20T00:04:46.081Z,3.31
2018-12-20T00:05:46.642Z,3.29
2018-12-20T00:06:46.646Z,3.34
2018-12-20T00:07:46.724Z,3.29
2018-12-20T00:08:46.696Z,3.26
2018-12-20T00:09:45.706Z,3.26
2018-12-20T00:10:45.572Z,3.31
2018-12-20T00:11:45.634Z,3.34
2018-12-20T00:12:46.200Z,3.36
2018-12-20T00:13:45.270Z,3.31
2018-12-20T00:14:45.180Z,3.34
2018-12-20T00:15:45.232Z,3.26
2018-12-20T00:16:45.041Z,3.29
2018-12-20T00:17:44.971Z,3.32
2018-12-20T00:18:44.777Z,3.37
2018-12-20T00:19:44.747Z,3.36
2018-12-20T00:20:44.714Z,3.32
2018-12-20T00:21:45.146Z,3.26
2018-12-20T00:22:44.608Z,3.26
2018-12-20T00:23:44.526Z,3.25
2018-12-20T00:24:45.161Z,3.26
2018-12-20T00:25:44.238Z,3.25
2018-12-20T00:26:44.698Z,3.28
2018-12-20T00:27:44.665Z,3.29
2018-12-20T00:28:43.959Z,3.41
2018-12-20T00:29:44.041Z,3.31
2018-12-20T00:30:43.856Z,3.37
2018-12-20T00:31:43.707Z,3.32
2018-12-20T00:32:43.737Z,3.36
2018-12-20T00:33:43.727Z,3.26
2018-12-20T00:34:43.474Z,3.25
2018-12-20T00:35:43.353Z,3.29
2018-12-20T00:36:43.299Z,3.29
2018-12-20T00:37:43.210Z,3.31
2018-12-20T00:38:43.152Z,3.25
2018-12-20T00:39:42.993Z,3.29
2018-12-20T00:40:43.650Z,3.26
2018-12-20T00:41:42.826Z,3.26
2018-12-20T00:42:42.735Z,3.26
2018-12-20T00:43:42.755Z,3.34
2018-12-20T00:44:42.584Z,3.26
2018-12-20T00:45:42.587Z,3.26
2018-12-20T00:46:43.298Z,3.25
2018-12-20T00:47:42.380Z,3.26
2018-12-20T00:48:42.339Z,3.36
2018-12-20T00:49:42.209Z,3.29
2018-12-20T00:50:42.043Z,3.29
2018-12-20T00:51:42.005Z,3.31
2018-12-20T00:52:41.865Z,3.25
2018-12-20T00:53:41.775Z,3.23
2018-12-20T00:54:41.689Z,3.26
2018-12-20T00:55:41.707Z,3.28
2018-12-20T00:56:41.649Z,3.34
2018-12-20T00:57:41.525Z,3.28
2018-12-20T00:58:41.468Z,3.37
2018-12-20T00:59:42.152Z,3.34
2018-12-20T01:00:41.160Z,3.36
2018-12-20T01:01:41.146Z,3.32
2018-12-20T01:02:40.934Z,3.32
2018-12-20T01:03:42.680Z,3.34
2018-12-20T01:04:40.832Z,3.34
2018-12-20T01:05:40.753Z,3.34
2018-12-20T01:06:41.243Z,3.26
2018-12-20T01:07:40.552Z,3.25
2018-12-20T01:08:40.459Z,3.36
2018-12-20T01:09:40.374Z,3.36
2018-12-20T01:10:40.290Z,3.29
2018-12-20T01:11:40.207Z,3.26
2018-12-20T01:12:40.117Z,3.25
2018-12-20T01:13:40.273Z,3.28
2018-12-20T01:14:45.327Z,3.37
2018-12-20T01:15:39.976Z,3.37
2018-12-20T01:16:40.791Z,3.40
2018-12-20T01:17:39.784Z,3.26
2018-12-20T01:18:39.622Z,3.22
2018-12-20T01:19:40.156Z,3.28
2018-12-20T01:20:39.519Z,3.25
2018-12-20T01:21:39.340Z,3.25
2018-12-20T01:22:39.251Z,3.26
2018-12-20T01:23:39.165Z,3.23
2018-12-20T01:24:39.295Z,3.32
2018-12-20T01:25:39.083Z,3.25
2018-12-20T01:26:38.892Z,3.29
2018-12-20T01:27:38.841Z,3.34
2018-12-20T01:28:38.841Z,3.26
2018-12-20T01:29:39.161Z,3.34
2018-12-20T01:30:38.573Z,3.28
2018-12-20T01:31:38.517Z,3.25
2018-12-20T01:32:39.315Z,3.31
2018-12-20T01:33:38.306Z,3.28
2018-12-20T01:34:38.299Z,3.34
2018-12-20T01:35:38.139Z,3.34
2018-12-20T01:36:38.011Z,3.34
2018-12-20T01:37:37.931Z,3.28
2018-12-20T01:38:37.864Z,3.37
2018-12-20T01:39:38.760Z,3.28
2018-12-20T01:40:38.658Z,3.31
2018-12-20T01:41:37.733Z,3.34
2018-12-20T01:42:37.491Z,3.28
2018-12-20T01:43:37.453Z,3.34
2018-12-20T01:44:38.159Z,3.28
2018-12-20T01:45:37.344Z,3.29
2018-12-20T01:46:37.137Z,3.32
2018-12-20T01:47:37.127Z,3.34
2018-12-20T01:48:37.833Z,3.31
2018-12-20T01:49:36.841Z,3.40
2018-12-20T01:50:36.832Z,3.34
2018-12-20T01:51:36.724Z,3.32
2018-12-20T01:52:36.639Z,3.31
2018-12-20T01:53:36.497Z,3.31
2018-12-20T01:54:36.467Z,3.32
2018-12-20T01:55:36.483Z,3.28
2018-12-20T01:56:37.161Z,3.26
2018-12-20T01:57:38.187Z,3.26
2018-12-20T01:58:36.251Z,3.36
2018-12-20T01:59:36.842Z,3.34
2018-12-20T02:00:35.913Z,3.28
2018-12-20T02:01:35.825Z,3.31
2018-12-20T02:02:35.765Z,3.31
2018-12-20T02:03:36.382Z,3.26
2018-12-20T02:04:35.563Z,3.25
2018-12-20T02:05:35.690Z,3.29
2018-12-20T02:06:36.167Z,3.26
2018-12-20T02:07:35.307Z,3.31
2018-12-20T02:08:35.219Z,3.29
2018-12-20T02:09:35.665Z,3.19
2018-12-20T02:10:35.143Z,3.22
2018-12-20T02:11:34.996Z,3.26
2018-12-20T02:12:34.862Z,3.29
2018-12-20T02:13:34.786Z,3.28
2018-12-20T02:14:34.693Z,3.26
2018-12-20T02:15:34.637Z,3.32
2018-12-20T02:16:34.540Z,3.32
2018-12-20T02:17:34.440Z,3.29
2018-12-20T02:18:36.253Z,3.23
2018-12-20T02:19:34.256Z,3.26
2018-12-20T02:20:34.172Z,3.28
2018-12-20T02:21:34.147Z,3.19
2018-12-20T02:22:34.050Z,3.22
2018-12-20T02:23:34.024Z,3.28
2018-12-20T02:24:35.784Z,3.28
2018-12-20T02:25:33.729Z,3.28
2018-12-20T02:26:33.659Z,3.28
2018-12-20T02:27:33.709Z,3.23
2018-12-20T02:28:33.484Z,3.26
2018-12-20T02:29:33.384Z,3.22
2018-12-20T02:30:33.296Z,3.32
2018-12-20T02:31:34.211Z,3.32
2018-12-20T02:32:33.117Z,3.26
2018-12-20T02:33:33.032Z,3.28
2018-12-20T02:34:32.981Z,3.28
2018-12-20T02:35:32.980Z,3.29
2018-12-20T02:36:32.909Z,3.23
2018-12-20T02:37:32.845Z,3.25
2018-12-20T02:38:32.620Z,3.21
2018-12-20T02:39:33.398Z,3.21
2018-12-20T02:40:32.473Z,3.23
2018-12-20T02:41:32.448Z,3.23
2018-12-20T02:42:33.382Z,3.23
2018-12-20T02:43:32.406Z,3.22
2018-12-20T02:44:32.075Z,3.19
2018-12-20T02:45:32.700Z,3.25
2018-12-20T02:46:32.668Z,3.19
2018-12-20T02:47:32.675Z,3.25
2018-12-20T02:48:31.726Z,3.21
2018-12-20T02:49:32.335Z,3.25
2018-12-20T02:50:31.545Z,3.26
2018-12-20T02:51:31.452Z,3.26
2018-12-20T02:52:31.518Z,3.21
2018-12-20T02:53:32.199Z,3.28
2018-12-20T02:54:31.281Z,3.29
2018-12-20T02:55:31.132Z,3.19
2018-12-20T02:56:31.047Z,3.19
2018-12-20T02:57:30.927Z,3.21
2018-12-20T02:58:31.672Z,3.25
2018-12-20T02:59:30.842Z,3.19
2018-12-20T03:00:30.834Z,3.18
2018-12-20T03:01:30.589Z,3.22
2018-12-20T03:02:30.650Z,3.25
2018-12-20T03:03:30.402Z,3.26
2018-12-20T03:04:30.319Z,3.26
2018-12-20T03:05:30.423Z,3.25
2018-12-20T03:06:30.147Z,3.23
2018-12-20T03:07:30.048Z,3.26
2018-12-20T03:08:29.972Z,3.21
2018-12-20T03:09:29.885Z,3.21
2018-12-20T03:10:29.888Z,3.26
2018-12-20T03:11:29.943Z,3.21
2018-12-20T03:12:29.752Z,3.22
2018-12-20T03:13:29.761Z,3.22
2018-12-20T03:14:29.455Z,3.22
2018-12-20T03:15:29.534Z,3.22
2018-12-20T03:16:29.279Z,3.16
2018-12-20T03:17:29.434Z,3.21
2018-12-20T03:18:29.139Z,3.18
2018-12-20T03:19:29.000Z,3.29
2018-12-20T03:20:28.946Z,3.19
2018-12-20T03:21:29.001Z,3.23
2018-12-20T03:22:28.791Z,3.21
2018-12-20T03:23:28.909Z,3.26
2018-12-20T03:24:30.318Z,3.18
2018-12-20T03:25:31.454Z,3.22
2018-12-20T03:26:28.407Z,3.25
2018-12-20T03:27:28.670Z,3.19
2018-12-20T03:28:28.375Z,3.26
2018-12-20T03:29:28.166Z,3.22
2018-12-20T03:30:28.058Z,3.14
2018-12-20T03:31:27.963Z,3.21
2018-12-20T03:32:28.684Z,3.25
2018-12-20T03:33:28.037Z,3.19
2018-12-20T03:34:27.876Z,3.16
2018-12-20T03:35:27.620Z,3.22
2018-12-20T03:36:30.176Z,3.22
2018-12-20T03:37:27.439Z,3.18
2018-12-20T03:38:27.341Z,3.26
2018-12-20T03:39:27.254Z,3.25
2018-12-20T03:40:27.171Z,3.23
2018-12-20T03:41:27.085Z,3.11
2018-12-20T03:42:27.042Z,3.26
2018-12-20T03:43:26.969Z,3.22
2018-12-20T03:44:26.945Z,3.19
2018-12-20T03:45:29.046Z,3.26
2018-12-20T03:46:26.826Z,3.19
2018-12-20T03:47:26.587Z,3.23
2018-12-20T03:48:26.468Z,3.26
2018-12-20T03:49:27.338Z,3.26
2018-12-20T03:50:27.197Z,3.26
2018-12-20T03:51:26.350Z,3.21
2018-12-20T03:52:26.315Z,3.22
2018-12-20T03:53:26.399Z,3.18
2018-12-20T03:54:26.016Z,3.11
2018-12-20T03:55:26.024Z,3.21
2018-12-20T03:56:25.766Z,3.18
2018-12-20T03:57:26.687Z,3.14
2018-12-20T03:58:25.787Z,3.19
2018-12-20T03:59:25.446Z,3.16
2018-12-20T04:00:25.468Z,3.21
2018-12-20T04:01:25.572Z,3.14
2018-12-20T04:02:25.422Z,3.26
2018-12-20T04:03:25.296Z,3.11
2018-12-20T04:04:25.176Z,3.21
2018-12-20T04:05:25.762Z,3.21
2018-12-20T04:06:25.776Z,3.29
2018-12-20T04:07:25.183Z,3.19
2018-12-20T04:08:24.702Z,3.19
2018-12-20T04:09:24.766Z,3.22
2018-12-20T04:10:24.895Z,3.21
2018-12-20T04:11:24.496Z,3.23
2018-12-20T04:12:25.180Z,3.29
2018-12-20T04:13:24.510Z,3.25
2018-12-20T04:14:24.136Z,3.29
2018-12-20T04:15:24.137Z,3.23
2018-12-20T04:16:24.012Z,3.29
2018-12-20T04:17:24.691Z,3.18
2018-12-20T04:18:23.914Z,3.26
2018-12-20T04:19:23.750Z,3.21
2018-12-20T04:20:23.671Z,3.21
2018-12-20T04:21:23.613Z,3.21
2018-12-20T04:22:23.799Z,3.29
2018-12-20T04:23:23.404Z,3.26
2018-12-20T04:24:23.566Z,3.21
2018-12-20T04:25:23.232Z,3.28
2018-12-20T04:26:23.136Z,3.31
2018-12-20T04:27:23.051Z,3.19
2018-12-20T04:28:23.691Z,3.23
2018-12-20T04:29:23.022Z,3.21
2018-12-20T04:30:22.960Z,3.25
2018-12-20T04:31:22.703Z,3.21
2018-12-20T04:32:22.611Z,3.21
2018-12-20T04:33:22.526Z,3.21
2018-12-20T04:34:23.193Z,3.18
2018-12-20T04:35:22.357Z,3.21
2018-12-20T04:36:23.360Z,3.23
2018-12-20T04:37:22.212Z,3.18
2018-12-20T04:38:22.127Z,3.18
2018-12-20T04:39:22.107Z,3.26
2018-12-20T04:40:21.998Z,3.22
2018-12-20T04:41:21.953Z,3.19
2018-12-20T04:42:22.858Z,3.19
2018-12-20T04:43:21.656Z,3.22
2018-12-20T04:44:22.545Z,3.13
2018-12-20T04:45:22.189Z,3.26
2018-12-20T04:46:21.485Z,3.23
2018-12-20T04:47:21.415Z,3.23
2018-12-20T04:48:21.314Z,3.21
2018-12-20T04:49:21.125Z,3.22
2018-12-20T04:50:21.033Z,3.19
2018-12-20T04:51:21.103Z,3.29
2018-12-20T04:52:21.122Z,3.25
2018-12-20T04:53:20.779Z,3.13
2018-12-20T04:54:20.854Z,3.23
2018-12-20T04:55:20.836Z,3.22
2018-12-20T04:56:21.332Z,3.16
2018-12-20T04:57:20.431Z,3.21
2018-12-20T04:58:20.354Z,3.21
2018-12-20T04:59:20.259Z,3.19
2018-12-20T05:00:20.187Z,3.18
2018-12-20T05:01:20.937Z,3.18
2018-12-20T05:02:20.094Z,3.23
2018-12-20T05:03:19.955Z,3.19
2018-12-20T05:04:20.093Z,3.19
2018-12-20T05:05:19.766Z,3.21
2018-12-20T05:06:19.635Z,3.16
2018-12-20T05:07:20.379Z,3.23
2018-12-20T05:08:19.751Z,3.16
2018-12-20T05:09:19.377Z,3.28
2018-12-20T05:10:20.298Z,3.08
2018-12-20T05:11:20.340Z,3.21
2018-12-20T05:12:19.695Z,3.25
2018-12-20T05:13:19.387Z,3.25
2018-12-20T05:14:19.694Z,3.13
2018-12-20T05:15:19.797Z,3.31
2018-12-20T05:16:18.763Z,3.19
2018-12-20T05:17:18.719Z,3.19
2018-12-20T05:18:26.098Z,3.28
2018-12-20T05:20:22.603Z,3.37
2018-12-20T05:21:22.269Z,3.37
2018-12-20T05:22:22.156Z,3.32
2018-12-20T05:23:22.104Z,3.25
2018-12-20T05:24:21.993Z,3.18
2018-12-20T05:25:21.965Z,3.31
2018-12-20T05:26:22.151Z,3.37
2018-12-20T05:27:21.776Z,3.23
2018-12-20T05:28:22.449Z,3.25
2018-12-20T05:29:22.524Z,3.34
2018-12-20T05:30:22.477Z,3.34
2018-12-20T05:31:21.609Z,3.31
2018-12-20T05:32:21.985Z,3.29
2018-12-20T05:33:21.425Z,3.29
2018-12-20T05:34:21.217Z,3.48
2018-12-20T05:35:21.082Z,3.31
2018-12-20T05:36:21.176Z,3.50
2018-12-20T05:37:21.110Z,3.45
2018-12-20T05:38:21.486Z,3.32
2018-12-20T05:39:20.792Z,3.50
2018-12-20T05:40:20.858Z,3.32
2018-12-20T05:41:20.554Z,3.36
2018-12-20T05:42:20.471Z,3.34
2018-12-20T05:43:20.393Z,3.34
2018-12-20T05:44:20.422Z,3.25
2018-12-20T05:45:20.981Z,3.23
2018-12-20T05:46:20.097Z,3.21
2018-12-20T05:47:20.153Z,3.25
2018-12-20T05:48:20.060Z,3.21
2018-12-20T05:49:19.823Z,3.14
2018-12-20T05:50:20.454Z,3.14
2018-12-20T05:51:19.827Z,3.14
2018-12-20T05:52:19.606Z,3.19
2018-12-20T05:53:22.579Z,3.10
2018-12-20T05:54:19.541Z,3.19
2018-12-20T05:55:24.141Z,3.25
2018-12-20T05:56:19.399Z,3.25
2018-12-20T05:57:19.161Z,3.14
2018-12-20T05:58:19.071Z,3.19
2018-12-20T05:59:18.980Z,3.18
2018-12-20T06:00:19.214Z,3.21
2018-12-20T06:01:18.807Z,3.14
2018-12-20T06:02:19.455Z,3.26
2018-12-20T06:03:18.883Z,3.22
2018-12-20T06:04:18.537Z,3.22
2018-12-20T06:05:19.681Z,3.16
2018-12-20T06:06:18.504Z,3.25
2018-12-20T06:07:18.213Z,3.11
2018-12-20T06:08:18.192Z,3.13
2018-12-20T06:09:20.152Z,3.23
2018-12-20T06:10:18.010Z,3.21
2018-12-20T06:11:18.453Z,3.23
2018-12-20T06:12:18.111Z,3.23
2018-12-20T06:13:17.804Z,3.22
2018-12-20T06:14:17.761Z,3.19
2018-12-20T06:15:17.581Z,3.22
2018-12-20T06:16:17.650Z,3.22
2018-12-20T06:17:17.572Z,3.31
2018-12-20T06:18:17.323Z,3.14
2018-12-20T06:19:17.423Z,3.18
2018-12-20T06:20:17.358Z,3.14
2018-12-20T06:21:19.156Z,3.22
2018-12-20T06:22:17.035Z,3.22
2018-12-20T06:23:17.460Z,3.13
2018-12-20T06:24:16.788Z,3.18
2018-12-20T06:25:17.458Z,3.19
2018-12-20T06:26:16.550Z,3.19
2018-12-20T06:27:16.459Z,3.07
2018-12-20T06:28:16.380Z,3.05
2018-12-20T06:29:16.283Z,3.19
2018-12-20T06:30:16.198Z,3.18
2018-12-20T06:31:16.154Z,3.16
2018-12-20T06:32:16.021Z,3.14
2018-12-20T06:33:15.937Z,3.19
2018-12-20T06:34:15.875Z,3.23
2018-12-20T06:35:15.759Z,3.18
2018-12-20T06:36:15.716Z,3.22
2018-12-20T06:37:15.585Z,3.26
2018-12-20T06:38:15.495Z,3.26
2018-12-20T06:39:15.408Z,3.14
2018-12-20T06:40:16.413Z,3.13
2018-12-20T06:41:15.232Z,3.13
2018-12-20T06:42:15.147Z,3.22
2018-12-20T06:43:15.059Z,3.13
2018-12-20T06:44:14.970Z,3.25
2018-12-20T06:45:14.887Z,3.22
2018-12-20T06:46:21.050Z,3.14
2018-12-20T06:47:14.707Z,3.22
2018-12-20T06:48:14.620Z,3.18
2018-12-20T06:49:14.533Z,3.16
2018-12-20T06:50:14.445Z,3.13
2018-12-20T06:51:14.357Z,3.14
2018-12-20T06:52:14.272Z,3.13
2018-12-20T06:53:14.218Z,3.16
2018-12-20T06:54:14.095Z,3.14
2018-12-20T06:55:14.008Z,3.25
2018-12-20T06:56:13.921Z,3.22
2018-12-20T06:57:13.830Z,3.26
2018-12-20T06:58:13.743Z,3.21
2018-12-20T06:59:13.661Z,3.23
2018-12-20T07:00:13.571Z,3.16
2018-12-20T07:01:13.485Z,3.26
2018-12-20T07:02:13.411Z,3.19
2018-12-20T07:03:13.307Z,3.22
2018-12-20T07:04:13.220Z,3.16
2018-12-20T07:05:13.135Z,3.22
2018-12-20T07:06:13.043Z,3.23
2018-12-20T07:07:12.957Z,3.18
2018-12-20T07:08:12.878Z,3.21
2018-12-20T07:09:12.784Z,3.22
2018-12-20T07:10:12.698Z,3.23
2018-12-20T07:11:12.677Z,3.21
2018-12-20T07:12:12.589Z,3.23
2018-12-20T07:13:12.509Z,3.18
2018-12-20T07:14:12.407Z,3.23
2018-12-20T07:15:12.970Z,3.26
2018-12-20T07:16:12.336Z,3.26
2018-12-20T07:17:12.151Z,3.22
2018-12-20T07:18:12.064Z,3.19
2018-12-20T07:19:11.980Z,3.26
2018-12-20T07:20:11.886Z,3.21
2018-12-20T07:21:11.812Z,3.21
2018-12-20T07:22:12.463Z,3.18
2018-12-20T07:23:11.623Z,3.23
2018-12-20T07:24:11.536Z,3.25
2018-12-20T07:25:11.975Z,3.28
2018-12-20T07:26:11.359Z,3.37
2018-12-20T07:27:11.969Z,3.31
2018-12-20T07:28:11.186Z,3.32
2018-12-20T07:29:11.095Z,3.37
2018-12-20T07:30:10.974Z,3.37
2018-12-20T07:31:12.475Z,3.29
2018-12-20T07:32:10.834Z,3.34
2018-12-20T07:33:10.748Z,3.29
2018-12-20T07:34:10.662Z,3.28
2018-12-20T07:35:10.572Z,3.28
2018-12-20T07:36:10.486Z,3.42
2018-12-20T07:37:10.394Z,3.34
2018-12-20T07:38:10.315Z,3.34
2018-12-20T07:39:10.969Z,3.31
2018-12-20T07:40:10.139Z,3.36
2018-12-20T07:41:10.011Z,3.34
2018-12-20T07:42:09.958Z,3.31
2018-12-20T07:43:09.877Z,3.29
2018-12-20T07:44:09.794Z,3.29
2018-12-20T07:45:09.708Z,3.34
2018-12-20T07:46:09.601Z,3.36
2018-12-20T07:47:09.520Z,3.31
2018-12-20T07:48:09.448Z,3.31
2018-12-20T07:49:09.979Z,3.28
2018-12-20T07:50:09.259Z,3.34
2018-12-20T07:51:09.190Z,3.37
2018-12-20T07:52:09.091Z,3.44
2018-12-20T07:53:09.005Z,3.47
2018-12-20T07:54:09.474Z,3.47
2018-12-20T07:55:08.831Z,3.36
2018-12-20T07:56:08.731Z,3.44
2018-12-20T07:57:08.659Z,3.45
2018-12-20T07:58:08.572Z,3.28
2018-12-20T07:59:12.982Z,3.41
2018-12-20T08:00:08.399Z,3.42
2018-12-20T08:01:08.311Z,3.44
2018-12-20T08:02:08.971Z,3.42
2018-12-20T08:03:08.125Z,3.44
2018-12-20T08:04:08.038Z,3.45
2018-12-20T08:05:07.953Z,3.41
2018-12-20T08:06:08.475Z,3.45
2018-12-20T08:07:07.779Z,3.45
2018-12-20T08:08:08.475Z,3.42
2018-12-20T08:09:07.649Z,3.45
2018-12-20T08:10:07.510Z,3.44
2018-12-20T08:11:07.424Z,3.45
2018-12-20T08:12:07.981Z,3.42
2018-12-20T08:13:07.986Z,3.44
2018-12-20T08:14:07.169Z,3.42
2018-12-20T08:15:07.185Z,3.45
2018-12-20T08:16:06.994Z,3.41
2018-12-20T08:17:06.902Z,3.37
2018-12-20T08:18:07.481Z,3.41
2018-12-20T08:19:07.467Z,3.41
2018-12-20T08:20:06.636Z,3.45
2018-12-20T08:21:07.478Z,3.29
2018-12-20T08:22:06.471Z,3.28
2018-12-20T08:23:06.381Z,3.29
2018-12-20T08:24:06.292Z,3.40
2018-12-20T08:25:06.978Z,3.37
2018-12-20T08:26:06.123Z,3.26
2018-12-20T08:27:06.035Z,3.42
2018-12-20T08:28:06.439Z,3.26
2018-12-20T08:29:06.481Z,3.26
2018-12-20T08:30:05.769Z,3.31
2018-12-20T08:31:05.687Z,3.34
2018-12-20T08:32:05.608Z,3.29
2018-12-20T08:33:05.461Z,3.31
2018-12-20T08:34:06.015Z,3.31
2018-12-20T08:35:05.334Z,3.34
2018-12-20T08:36:05.255Z,3.32
2018-12-20T08:37:05.158Z,3.31
2018-12-20T08:38:05.074Z,3.41
2018-12-20T08:39:04.993Z,3.37
2018-12-20T08:40:04.826Z,3.31
2018-12-20T08:41:04.744Z,3.42
2018-12-20T08:42:04.654Z,3.45
2018-12-20T08:43:04.566Z,3.48
2018-12-20T08:44:04.478Z,3.44
2018-12-20T08:45:04.393Z,3.55
2018-12-20T08:46:04.302Z,3.47
2018-12-20T08:47:04.217Z,3.47
2018-12-20T08:48:04.130Z,3.50
2018-12-20T08:49:04.043Z,3.63
2018-12-20T08:50:03.957Z,3.58
2018-12-20T08:51:03.869Z,3.59
2018-12-20T08:52:03.781Z,3.59
2018-12-20T08:53:03.705Z,3.58
2018-12-20T08:54:03.606Z,3.65
2018-12-20T08:55:03.524Z,3.63
2018-12-20T08:56:03.433Z,3.70
2018-12-20T08:57:04.433Z,3.62
2018-12-20T08:58:03.258Z,3.63
2018-12-20T08:59:03.170Z,3.74
2018-12-20T09:00:03.083Z,3.76
2018-12-20T09:01:03.000Z,3.77
2018-12-20T09:02:02.909Z,3.74
2018-12-20T09:03:02.822Z,3.78
2018-12-20T09:04:02.734Z,3.74
2018-12-20T09:05:03.075Z,3.80
2018-12-20T09:06:02.563Z,3.77
2018-12-20T09:07:02.473Z,3.81
2018-12-20T09:08:02.390Z,3.81
2018-12-20T09:09:02.305Z,3.77
2018-12-20T09:10:02.214Z,3.78
2018-12-20T09:11:02.130Z,3.76
2018-12-20T09:12:02.046Z,3.80
2018-12-20T09:13:09.318Z,3.77
2018-12-20T09:14:01.867Z,3.81
2018-12-20T09:15:01.782Z,3.77
2018-12-20T09:16:01.758Z,3.84
2018-12-20T09:17:03.089Z,3.81
2018-12-20T09:18:01.592Z,3.81
2018-12-20T09:19:01.431Z,3.77
2018-12-20T09:20:01.349Z,3.69
2018-12-20T09:21:01.257Z,3.76
2018-12-20T09:22:01.171Z,3.78
2018-12-20T09:23:01.084Z,3.80
2018-12-20T09:24:01.027Z,3.78
2018-12-20T09:25:00.910Z,3.77
2018-12-20T09:26:00.822Z,3.81
2018-12-20T09:27:00.739Z,3.70
2018-12-20T09:28:00.652Z,3.74
2018-12-20T09:29:00.565Z,3.78
2018-12-20T09:30:00.477Z,3.80
2018-12-20T09:31:00.387Z,3.81
2018-12-20T09:32:00.303Z,3.81
2018-12-20T09:33:00.220Z,3.77
2018-12-20T09:34:00.130Z,3.78
2018-12-20T09:35:00.044Z,3.81
2018-12-20T09:35:59.954Z,3.84
2018-12-20T09:36:59.868Z,3.78
2018-12-20T09:38:01.056Z,3.77
2018-12-20T09:38:59.692Z,3.77
2018-12-20T09:39:59.612Z,3.77
2018-12-20T09:40:59.520Z,3.76
2018-12-20T09:41:59.436Z,3.77
2018-12-20T09:42:59.349Z,3.73
2018-12-20T09:43:59.259Z,3.78
2018-12-20T09:44:59.175Z,3.69
2018-12-20T09:45:59.085Z,3.77
2018-12-20T09:46:59.000Z,3.77
2018-12-20T09:47:58.993Z,3.78
2018-12-20T09:48:58.828Z,3.74
2018-12-20T09:49:58.743Z,3.81
2018-12-20T09:50:58.651Z,3.83
2018-12-20T09:51:58.563Z,3.81
2018-12-20T09:52:58.496Z,3.77
2018-12-20T09:53:58.389Z,3.77
2018-12-20T09:54:58.302Z,3.77
2018-12-20T09:55:58.220Z,3.78
2018-12-20T09:56:58.132Z,3.84
2018-12-20T09:57:58.051Z,3.84
2018-12-20T09:58:57.955Z,3.91
2018-12-20T09:59:57.874Z,3.92
2018-12-20T10:00:57.831Z,3.84
2018-12-20T10:01:57.753Z,3.94
2018-12-20T10:02:57.613Z,3.94
2018-12-20T10:03:57.523Z,3.96
2018-12-20T10:04:57.442Z,3.94
2018-12-20T10:05:57.419Z,3.98
2018-12-20T10:06:57.269Z,3.96
2018-12-20T10:07:57.173Z,3.95
2018-12-20T10:08:57.096Z,3.95
2018-12-20T10:09:57.004Z,3.95
2018-12-20T10:10:56.914Z,4.12
2018-12-20T10:11:56.828Z,4.02
2018-12-20T10:12:56.744Z,3.94
2018-12-20T10:13:56.728Z,4.01
2018-12-20T10:14:56.568Z,3.95
2018-12-20T10:15:56.481Z,3.94
2018-12-20T10:16:56.468Z,3.94
2018-12-20T10:17:56.308Z,4.08
2018-12-20T10:18:56.221Z,3.92
2018-12-20T10:19:56.145Z,4.05
2018-12-20T10:20:56.069Z,3.98
2018-12-20T10:21:56.037Z,3.94
2018-12-20T10:22:55.873Z,4.10
2018-12-20T10:23:55.787Z,4.14
2018-12-20T10:24:55.702Z,4.08
2018-12-20T10:25:55.614Z,4.13
2018-12-20T10:26:55.533Z,4.10
2018-12-20T10:27:55.446Z,4.13
2018-12-20T10:28:55.359Z,4.12
2018-12-20T10:29:55.300Z,4.14
2018-12-20T10:30:55.181Z,4.14
2018-12-20T10:31:55.096Z,4.22
2018-12-20T10:32:55.047Z,4.17
2018-12-20T10:33:54.925Z,4.17
2018-12-20T10:34:54.837Z,4.10
2018-12-20T10:35:54.763Z,4.13
2018-12-20T10:36:54.668Z,4.14
2018-12-20T10:37:54.580Z,4.12
2018-12-20T10:38:54.507Z,4.16
2018-12-20T10:39:54.404Z,4.24
2018-12-20T10:40:54.318Z,4.20
2018-12-20T10:41:54.233Z,4.28
2018-12-20T10:42:54.148Z,4.26
2018-12-20T10:43:54.062Z,4.23
2018-12-20T10:44:53.974Z,4.26
2018-12-20T10:45:53.888Z,4.30
2018-12-20T10:46:53.801Z,4.14
2018-12-20T10:47:53.716Z,4.30
2018-12-20T10:48:53.627Z,4.26
2018-12-20T10:49:53.537Z,4.30
2018-12-20T10:50:53.456Z,4.28
2018-12-20T10:51:53.367Z,4.22
2018-12-20T10:52:53.284Z,4.17
2018-12-20T10:53:53.197Z,4.17
2018-12-20T10:54:53.110Z,4.17
2018-12-20T10:55:53.023Z,4.23
2018-12-20T10:56:52.937Z,4.20
2018-12-20T10:57:52.850Z,4.16
2018-12-20T10:58:52.763Z,4.20
2018-12-20T10:59:52.682Z,4.31
2018-12-20T11:00:52.597Z,4.37
2018-12-20T11:01:52.510Z,4.37
2018-12-20T11:02:52.417Z,4.34
2018-12-20T11:03:52.332Z,4.34
2018-12-20T11:04:52.288Z,4.30
2018-12-20T11:05:52.159Z,4.31
2018-12-20T11:06:52.076Z,4.30
2018-12-20T11:07:51.987Z,4.38
2018-12-20T11:08:51.912Z,4.45
2018-12-20T11:09:51.813Z,4.40
2018-12-20T11:10:51.729Z,4.42
2018-12-20T11:11:51.641Z,4.42
2018-12-20T11:12:51.561Z,4.37
2018-12-20T11:13:51.473Z,4.48
2018-12-20T11:14:51.382Z,4.49
2018-12-20T11:15:51.297Z,4.48
2018-12-20T11:16:51.232Z,4.45
2018-12-20T11:17:51.149Z,4.56
2018-12-20T11:18:58.741Z,4.56
2018-12-20T11:20:54.921Z,4.62
2018-12-20T11:21:54.745Z,4.62
2018-12-20T11:23:58.713Z,4.50
2018-12-20T11:24:58.529Z,4.62
2018-12-20T11:27:02.362Z,4.66
2018-12-20T11:28:02.262Z,4.55
2018-12-20T11:29:55.480Z,4.60
2018-12-20T11:30:55.410Z,4.60
2018-12-20T11:31:55.320Z,4.63
2018-12-20T11:32:56.110Z,4.66
2018-12-20T11:33:55.146Z,4.70
2018-12-20T11:34:55.716Z,4.75
2018-12-20T11:36:02.156Z,4.68
2018-12-20T11:37:58.795Z,4.62
2018-12-20T11:38:58.690Z,4.66
2018-12-20T11:41:04.563Z,4.60
2018-12-20T11:42:02.452Z,4.67
2018-12-20T11:43:02.317Z,4.77
2018-12-20T11:44:02.249Z,4.80
2018-12-20T11:45:02.156Z,4.67
2018-12-20T11:46:02.060Z,4.77
2018-12-20T11:47:01.979Z,4.70
2018-12-20T11:48:01.849Z,4.77
2018-12-20T11:49:01.813Z,4.84
2018-12-20T11:50:01.729Z,4.73
2018-12-20T11:51:01.636Z,4.87
2018-12-20T11:52:02.052Z,4.86
2018-12-20T11:53:01.470Z,4.87
2018-12-20T11:54:01.375Z,4.82
2018-12-20T11:55:01.242Z,4.84
2018-12-20T11:56:01.210Z,4.77
2018-12-20T11:57:01.119Z,4.78
2018-12-20T11:58:01.555Z,4.87
2018-12-20T11:59:01.549Z,4.75
2018-12-20T12:00:00.865Z,4.90
2018-12-20T12:01:00.740Z,4.74
2018-12-20T12:02:00.694Z,4.73
2018-12-20T12:03:00.616Z,4.84
2018-12-20T12:04:00.516Z,4.74
2018-12-20T12:05:00.438Z,4.78
2018-12-20T12:06:00.353Z,4.78
2018-12-20T12:07:00.266Z,4.68
2018-12-20T12:08:00.176Z,4.78
2018-12-20T12:09:02.066Z,4.77
2018-12-20T12:09:59.943Z,4.67
2018-12-20T12:10:59.851Z,4.75
2018-12-20T12:11:59.765Z,4.70
2018-12-20T12:12:59.686Z,4.77
2018-12-20T12:13:59.594Z,4.78
2018-12-20T12:14:59.511Z,4.62
2018-12-20T12:15:59.425Z,4.70
2018-12-20T12:16:59.407Z,4.77
2018-12-20T12:17:59.257Z,4.77
2018-12-20T12:18:59.168Z,4.74
2018-12-20T12:19:59.083Z,4.75
2018-12-20T12:20:58.997Z,4.71
2018-12-20T12:21:58.909Z,4.77
2018-12-20T12:22:58.823Z,4.74
2018-12-20T12:23:58.740Z,4.86
2018-12-20T12:24:58.663Z,4.75
2018-12-20T12:25:58.566Z,4.80
2018-12-20T12:26:58.486Z,4.73
2018-12-20T12:27:58.395Z,4.77
2018-12-20T12:28:58.310Z,4.73
2018-12-20T12:29:58.222Z,4.67
2018-12-20T12:30:58.140Z,4.75
2018-12-20T12:31:58.051Z,4.71
2018-12-20T12:32:57.965Z,4.75
2018-12-20T12:33:57.884Z,4.74
2018-12-20T12:34:57.795Z,4.78
2018-12-20T12:35:57.713Z,4.68
2018-12-20T12:36:57.624Z,4.71
2018-12-20T12:37:57.538Z,4.71
2018-12-20T12:38:57.458Z,4.80
2018-12-20T12:39:57.366Z,4.78
2018-12-20T12:40:57.284Z,4.74
2018-12-20T12:41:57.193Z,4.75
2018-12-20T12:42:57.111Z,4.77
2018-12-20T12:43:57.022Z,4.78
2018-12-20T12:44:56.934Z,4.75
2018-12-20T12:45:56.852Z,4.80
2018-12-20T12:46:56.819Z,4.77
2018-12-20T12:48:03.233Z,4.80
2018-12-20T12:48:56.595Z,4.78
2018-12-20T12:49:56.509Z,4.74
2018-12-20T12:50:56.423Z,4.77
2018-12-20T12:51:56.341Z,4.82
2018-12-20T12:52:56.249Z,4.82
2018-12-20T12:53:56.176Z,4.87
2018-12-20T12:54:56.079Z,4.87
2018-12-20T12:55:55.993Z,4.89
2018-12-20T12:56:55.914Z,4.90
2018-12-20T12:57:55.825Z,4.87
2018-12-20T12:58:55.739Z,4.92
2018-12-20T12:59:55.654Z,4.89
2018-12-20T13:00:55.563Z,4.89
2018-12-20T13:01:55.483Z,4.93
2018-12-20T13:02:55.393Z,4.94
2018-12-20T13:03:57.292Z,5.02
2018-12-20T13:04:55.236Z,5.05
2018-12-20T13:05:55.170Z,4.94
2018-12-20T13:06:55.061Z,4.90
2018-12-20T13:07:54.969Z,4.97
2018-12-20T13:08:54.883Z,5.04
2018-12-20T13:09:54.800Z,4.97
2018-12-20T13:10:54.712Z,5.00
2018-12-20T13:11:54.626Z,5.02
2018-12-20T13:12:54.542Z,4.90
2018-12-20T13:13:54.521Z,4.96
2018-12-20T13:14:54.370Z,4.99
2018-12-20T13:15:54.287Z,4.90
2018-12-20T13:16:54.202Z,4.92
2018-12-20T13:17:54.111Z,5.02
2018-12-20T13:18:54.030Z,5.05
2018-12-20T13:19:53.946Z,4.89
2018-12-20T13:20:53.854Z,4.89
2018-12-20T13:21:53.774Z,4.94
2018-12-20T13:22:53.683Z,5.02
2018-12-20T13:23:53.599Z,4.90
2018-12-20T13:24:53.521Z,4.86